CES3271 ZSNJ-ZBAA
Flight info
| Callsign | CES3271 |
|---|---|
| Flight time | N/A |
| Altitude | 38100 |
| Route | OF71X OF A470 DPX A593 DALIM W157 BEKDO/K0885S1190 W157 AVBOX AVBOX6J |
| Aircraft | B77W/H-SDE1E2E3FGHIJ2J3J4J5M1RWXY/LB1D1 |
Departure
| Time | 2026-04-20 15:16 |
|---|---|
| Airport | Nanjing Lukou International Airport (ZSNJ) |
Arrival
| Time | N/A |
|---|---|
| Airport | Beijing Capital International Airport (ZBAA) |
| Time | Latitude | Longitude | Altitude | Speed | Heading |
|---|---|---|---|---|---|
| 2026-04-20 15:16 | 31.88480 | 118.86094 | 18155 ft | 325 kts | 303° |
| 2026-04-20 15:16 | 31.90051 | 118.84156 | 18457 ft | 332 kts | 319° |
| 2026-04-20 15:16 | 31.92123 | 118.82924 | 18852 ft | 342 kts | 340° |
| 2026-04-20 15:16 | 31.93941 | 118.82368 | 19246 ft | 350 kts | 341° |
| 2026-04-20 15:17 | 31.96320 | 118.81668 | 19687 ft | 353 kts | 341° |
| 2026-04-20 15:17 | 31.98691 | 118.80946 | 20115 ft | 353 kts | 340° |
| 2026-04-20 15:17 | 32.01062 | 118.80184 | 20577 ft | 352 kts | 340° |
| 2026-04-20 15:17 | 32.03416 | 118.79399 | 21032 ft | 353 kts | 339° |
| 2026-04-20 15:18 | 32.05786 | 118.78604 | 21504 ft | 354 kts | 339° |
| 2026-04-20 15:18 | 32.08156 | 118.77805 | 21983 ft | 355 kts | 339° |
| 2026-04-20 15:18 | 32.10539 | 118.77004 | 22458 ft | 358 kts | 339° |
| 2026-04-20 15:18 | 32.12943 | 118.76196 | 22960 ft | 360 kts | 339° |
| 2026-04-20 15:19 | 32.15362 | 118.75382 | 23476 ft | 364 kts | 339° |
| 2026-04-20 15:19 | 32.17810 | 118.74560 | 23944 ft | 367 kts | 339° |
| 2026-04-20 15:19 | 32.20277 | 118.73730 | 24370 ft | 371 kts | 339° |
| 2026-04-20 15:19 | 32.22767 | 118.72892 | 24807 ft | 374 kts | 339° |
| 2026-04-20 15:20 | 32.25278 | 118.72048 | 25252 ft | 377 kts | 339° |
| 2026-04-20 15:20 | 32.26958 | 118.71483 | 25550 ft | 381 kts | 338° |
| 2026-04-20 15:20 | 32.29538 | 118.70612 | 26026 ft | 390 kts | 338° |
| 2026-04-20 15:20 | 32.32171 | 118.69722 | 26518 ft | 397 kts | 338° |
| 2026-04-20 15:21 | 32.34849 | 118.68819 | 27021 ft | 404 kts | 338° |
| 2026-04-20 15:21 | 32.37569 | 118.67901 | 27533 ft | 409 kts | 338° |
| 2026-04-20 15:21 | 32.40330 | 118.66970 | 28050 ft | 414 kts | 338° |
| 2026-04-20 15:21 | 32.43113 | 118.66032 | 28572 ft | 419 kts | 338° |
| 2026-04-20 15:22 | 32.45927 | 118.65082 | 29095 ft | 422 kts | 338° |
| 2026-04-20 15:22 | 32.48755 | 118.64128 | 29647 ft | 425 kts | 337° |
| 2026-04-20 15:22 | 32.51606 | 118.63164 | 30199 ft | 427 kts | 337° |
| 2026-04-20 15:22 | 32.54475 | 118.62193 | 30676 ft | 428 kts | 337° |
| 2026-04-20 15:23 | 32.57336 | 118.61225 | 31145 ft | 429 kts | 336° |
| 2026-04-20 15:23 | 32.60211 | 118.60252 | 31624 ft | 430 kts | 336° |
| 2026-04-20 15:23 | 32.63085 | 118.59277 | 32107 ft | 429 kts | 336° |
| 2026-04-20 15:23 | 32.65948 | 118.58306 | 32591 ft | 429 kts | 336° |
| 2026-04-20 15:24 | 32.68820 | 118.57324 | 33090 ft | 427 kts | 336° |
| 2026-04-20 15:24 | 32.71658 | 118.56323 | 33595 ft | 425 kts | 335° |
| 2026-04-20 15:24 | 32.74482 | 118.55313 | 34110 ft | 423 kts | 335° |
| 2026-04-20 15:24 | 32.77291 | 118.54304 | 34564 ft | 420 kts | 335° |
| 2026-04-20 15:25 | 32.80076 | 118.53304 | 35021 ft | 417 kts | 334° |
| 2026-04-20 15:25 | 32.82842 | 118.52313 | 35483 ft | 413 kts | 334° |
| 2026-04-20 15:25 | 32.85581 | 118.51333 | 35943 ft | 409 kts | 334° |
| 2026-04-20 15:25 | 32.88295 | 118.50363 | 36418 ft | 404 kts | 334° |
| 2026-04-20 15:26 | 32.90967 | 118.49408 | 36895 ft | 398 kts | 333° |
| 2026-04-20 15:26 | 32.93596 | 118.48468 | 37376 ft | 392 kts | 333° |
| 2026-04-20 15:26 | 32.96150 | 118.47555 | 37867 ft | 385 kts | 332° |
| 2026-04-20 15:26 | 32.98690 | 118.46646 | 38296 ft | 379 kts | 332° |
| 2026-04-20 15:27 | 33.01228 | 118.45727 | 38260 ft | 385 kts | 332° |
| 2026-04-20 15:27 | 33.06417 | 118.43847 | 38291 ft | 394 kts | 332° |
| 2026-04-20 15:28 | 33.11728 | 118.41933 | 38302 ft | 404 kts | 332° |
| 2026-04-20 15:28 | 33.17181 | 118.39972 | 38303 ft | 414 kts | 332° |
| 2026-04-20 15:29 | 33.22762 | 118.37960 | 38311 ft | 425 kts | 333° |
| 2026-04-20 15:29 | 33.28498 | 118.35889 | 38310 ft | 435 kts | 333° |
| 2026-04-20 15:30 | 33.34368 | 118.33770 | 38310 ft | 446 kts | 333° |
| 2026-04-20 15:30 | 33.40373 | 118.31605 | 38310 ft | 455 kts | 333° |